createdAt,value
2019-02-16T00:01:21.903Z,1.81
2019-02-16T00:04:15.524Z,1.80
2019-02-16T00:06:51.965Z,1.75
2019-02-16T00:09:29.269Z,1.75
2019-02-16T00:12:01.587Z,1.72
2019-02-16T00:14:35.560Z,1.70
2019-02-16T00:17:09.135Z,1.72
2019-02-16T00:19:44.292Z,1.71
2019-02-16T00:22:23.265Z,1.71
2019-02-16T00:25:03.138Z,1.71
2019-02-16T00:27:42.362Z,1.72
2019-02-16T00:30:14.830Z,1.73
2019-02-16T00:32:53.162Z,1.71
2019-02-16T00:35:25.163Z,1.67
2019-02-16T00:38:04.698Z,1.64
2019-02-16T00:40:40.715Z,1.61
2019-02-16T00:43:13.108Z,1.54
2019-02-16T00:45:45.693Z,1.48
2019-02-16T00:48:18.077Z,1.50
2019-02-16T00:50:53.317Z,1.49
2019-02-16T00:53:25.789Z,1.49
2019-02-16T00:56:03.591Z,1.49
2019-02-16T00:58:39.242Z,1.50
2019-02-16T01:01:11.507Z,1.49
2019-02-16T01:03:45.132Z,1.55
2019-02-16T01:06:21.597Z,1.57
2019-02-16T01:08:54.017Z,1.60
2019-02-16T01:11:32.190Z,1.63
2019-02-16T01:14:07.140Z,1.60
2019-02-16T01:16:39.626Z,1.55
2019-02-16T01:19:15.133Z,1.49
2019-02-16T01:21:47.772Z,1.45
2019-02-16T01:24:30.198Z,1.46
2019-02-16T01:27:14.417Z,1.49
2019-02-16T01:29:52.424Z,1.48
2019-02-16T01:32:28.100Z,1.51
2019-02-16T01:35:02.812Z,1.52
2019-02-16T01:37:43.769Z,1.55
2019-02-16T01:40:16.262Z,1.53
2019-02-16T01:42:57.151Z,1.48
2019-02-16T01:45:36.622Z,1.47
2019-02-16T01:48:09.320Z,1.46
2019-02-16T01:50:47.399Z,1.47
2019-02-16T01:53:28.643Z,1.40
2019-02-16T01:56:03.568Z,1.31
2019-02-16T01:58:40.985Z,1.28
2019-02-16T02:01:15.298Z,1.24
2019-02-16T02:03:52.031Z,1.23
2019-02-16T02:06:24.501Z,1.23
2019-02-16T02:09:04.224Z,1.23
2019-02-16T02:11:40.720Z,1.22
2019-02-16T02:14:15.176Z,1.21
2019-02-16T02:16:49.104Z,1.17
2019-02-16T02:19:26.204Z,1.14
2019-02-16T02:22:01.270Z,1.14
2019-02-16T02:24:33.695Z,1.17
2019-02-16T02:27:13.950Z,1.21
2019-02-16T02:29:43.179Z,1.22
2019-02-16T02:32:24.353Z,1.22
2019-02-16T02:34:57.915Z,1.25
2019-02-16T02:37:31.772Z,1.23
2019-02-16T02:40:10.925Z,1.18
2019-02-16T02:42:46.410Z,1.13
2019-02-16T02:45:28.163Z,1.09
2019-02-16T02:48:07.173Z,1.00
2019-02-16T02:50:44.287Z,0.95
2019-02-16T02:53:16.672Z,0.96
2019-02-16T02:55:51.287Z,0.99
2019-02-16T02:58:24.605Z,1.01
2019-02-16T03:00:56.931Z,1.03
2019-02-16T03:03:38.225Z,1.07
2019-02-16T03:06:15.942Z,1.09
2019-02-16T03:08:49.991Z,1.09
2019-02-16T03:11:22.344Z,1.08
2019-02-16T03:13:57.355Z,1.04
2019-02-16T03:16:29.663Z,1.03
2019-02-16T03:19:02.107Z,1.00
2019-02-16T03:21:35.668Z,0.98
2019-02-16T03:24:08.424Z,0.98
2019-02-16T03:27:45.522Z,1.01
2019-02-16T03:31:47.752Z,0.98
2019-02-16T03:34:24.064Z,0.95
2019-02-16T03:37:52.780Z,0.94
2019-02-16T03:40:33.077Z,0.91
2019-02-16T03:43:05.430Z,0.89
2019-02-16T03:45:40.408Z,0.89
2019-02-16T03:48:12.679Z,0.87
2019-02-16T03:50:44.832Z,0.88
2019-02-16T03:53:17.170Z,0.91
2019-02-16T03:55:54.747Z,0.91
2019-02-16T03:58:28.882Z,0.87
2019-02-16T04:01:07.072Z,0.86
2019-02-16T04:03:39.068Z,0.87
2019-02-16T04:06:10.917Z,0.87
2019-02-16T04:08:42.688Z,0.87
2019-02-16T04:11:16.281Z,0.88
2019-02-16T04:13:48.178Z,0.85
2019-02-16T04:16:20.170Z,0.86
2019-02-16T04:18:51.991Z,0.83
2019-02-16T04:21:23.954Z,0.80
2019-02-16T04:23:55.749Z,0.75
2019-02-16T04:26:28.521Z,0.72
2019-02-16T04:29:00.337Z,0.75
2019-02-16T04:31:32.179Z,0.72
2019-02-16T04:34:04.911Z,0.68
2019-02-16T04:36:36.705Z,0.63
2019-02-16T04:39:08.570Z,0.59
2019-02-16T04:41:40.396Z,0.56
2019-02-16T04:44:12.309Z,0.55
2019-02-16T04:46:44.089Z,0.54
2019-02-16T04:49:17.389Z,0.50
2019-02-16T04:51:49.302Z,0.48
2019-02-16T04:54:21.157Z,0.50
2019-02-16T04:56:53.021Z,0.46
2019-02-16T04:59:25.010Z,0.45
2019-02-16T05:01:56.885Z,0.46
2019-02-16T05:04:28.687Z,0.49
2019-02-16T05:07:00.547Z,0.44
2019-02-16T05:09:32.409Z,0.46
2019-02-16T05:12:04.283Z,0.49
2019-02-16T05:14:36.170Z,0.48
2019-02-16T05:17:08.074Z,0.49
2019-02-16T05:19:40.023Z,0.49
2019-02-16T05:22:11.862Z,0.50
2019-02-16T05:24:46.458Z,0.51
2019-02-16T05:27:18.430Z,0.55
2019-02-16T05:29:50.257Z,0.55
2019-02-16T05:32:22.126Z,0.52
2019-02-16T05:34:53.975Z,0.51
2019-02-16T05:37:25.762Z,0.51
2019-02-16T05:39:57.670Z,0.51
2019-02-16T05:42:29.649Z,0.54
2019-02-16T05:45:01.470Z,0.51
2019-02-16T05:47:33.462Z,0.52
2019-02-16T05:50:05.666Z,0.53
2019-02-16T05:52:37.478Z,0.56
2019-02-16T05:55:09.499Z,0.55
2019-02-16T05:57:41.314Z,0.55
2019-02-16T06:00:14.271Z,0.57
2019-02-16T06:02:47.307Z,0.58
2019-02-16T06:05:19.135Z,0.54
2019-02-16T06:07:50.995Z,0.57
2019-02-16T06:10:22.806Z,0.57
2019-02-16T06:12:54.656Z,0.64
2019-02-16T06:15:26.524Z,0.67
2019-02-16T06:17:58.438Z,0.71
2019-02-16T06:20:30.235Z,0.76
2019-02-16T06:23:04.659Z,0.78
2019-02-16T06:25:35.558Z,0.83
2019-02-16T06:28:07.630Z,0.88
2019-02-16T06:30:39.448Z,0.93
2019-02-16T06:33:11.292Z,1.00
2019-02-16T06:35:49.690Z,1.05
2019-02-16T06:38:21.522Z,1.08
2019-02-16T06:40:53.371Z,1.15
2019-02-16T06:43:25.719Z,1.23
2019-02-16T06:45:57.503Z,1.25
2019-02-16T06:48:29.390Z,1.31
2019-02-16T06:51:01.428Z,1.36
2019-02-16T06:53:33.325Z,1.39
2019-02-16T06:56:24.214Z,1.45
2019-02-16T06:58:56.170Z,1.50
2019-02-16T07:01:28.276Z,1.55
2019-02-16T07:04:00.032Z,1.57
2019-02-16T07:06:31.939Z,1.59
2019-02-16T07:09:04.966Z,1.63
2019-02-16T07:11:37.084Z,1.70
2019-02-16T07:14:09.231Z,1.74
2019-02-16T07:16:52.419Z,1.73
2019-02-16T07:19:30.057Z,1.67
2019-02-16T07:22:01.982Z,1.65
2019-02-16T07:24:33.864Z,1.67
2019-02-16T07:27:05.874Z,1.71
2019-02-16T07:29:37.746Z,1.77
2019-02-16T07:32:09.615Z,1.92
2019-02-16T07:34:41.408Z,2.01
2019-02-16T07:37:13.340Z,2.11
2019-02-16T07:39:45.414Z,2.19
2019-02-16T07:42:17.557Z,2.37
2019-02-16T07:44:58.038Z,2.49
2019-02-16T07:47:50.598Z,2.59
2019-02-16T07:50:44.502Z,2.74
2019-02-16T07:53:31.901Z,2.89
2019-02-16T07:56:39.848Z,3.07
2019-02-16T07:59:38.386Z,3.20
2019-02-16T08:02:23.449Z,3.32
2019-02-16T08:05:12.797Z,3.47
2019-02-16T08:08:03.667Z,3.62
2019-02-16T08:11:11.992Z,3.82
2019-02-16T08:14:08.009Z,3.96
2019-02-16T08:16:51.633Z,4.08
2019-02-16T08:19:41.741Z,4.23
2019-02-16T08:22:31.291Z,4.38
2019-02-16T08:25:18.630Z,4.50
2019-02-16T08:28:08.268Z,4.69
2019-02-16T08:31:05.096Z,4.85
2019-02-16T08:33:46.338Z,4.98
2019-02-16T08:36:32.977Z,5.08
2019-02-16T08:39:26.612Z,5.19
2019-02-16T08:42:26.130Z,5.36
2019-02-16T08:45:16.944Z,5.57
2019-02-16T08:48:06.067Z,5.82
2019-02-16T08:50:48.984Z,6.06
2019-02-16T08:53:57.613Z,6.12
2019-02-16T08:56:57.497Z,6.31
2019-02-16T08:59:40.085Z,6.46
2019-02-16T09:02:23.302Z,6.75
2019-02-16T09:04:59.354Z,6.87
2019-02-16T09:07:48.683Z,6.97
2019-02-16T09:10:39.436Z,7.02
2019-02-16T09:13:31.052Z,7.18
2019-02-16T09:16:21.885Z,7.44
2019-02-16T09:19:11.588Z,7.55
2019-02-16T09:21:54.340Z,7.96
2019-02-16T09:24:48.110Z,8.11
2019-02-16T09:27:44.925Z,8.19
2019-02-16T09:30:36.516Z,8.41
2019-02-16T09:33:34.073Z,9.15
2019-02-16T09:36:30.882Z,9.19
2019-02-16T09:39:30.669Z,9.52
2019-02-16T09:42:12.693Z,9.76
2019-02-16T09:44:54.635Z,9.83
2019-02-16T09:47:41.092Z,9.95
2019-02-16T09:50:30.537Z,10.23
2019-02-16T09:53:08.632Z,10.21
2019-02-16T09:56:07.109Z,10.55
2019-02-16T09:58:59.552Z,11.01
2019-02-16T10:02:02.632Z,11.43
2019-02-16T10:04:45.458Z,11.43
2019-02-16T10:07:39.802Z,11.31
2019-02-16T10:10:33.629Z,11.63
2019-02-16T10:13:36.883Z,11.50
2019-02-16T10:16:25.737Z,11.85
2019-02-16T10:19:16.436Z,12.03
2019-02-16T10:22:07.240Z,11.73
2019-02-16T10:24:55.815Z,12.12
2019-02-16T10:27:40.540Z,12.07
2019-02-16T10:30:18.391Z,12.06
2019-02-16T10:33:24.097Z,12.18
2019-02-16T10:36:06.045Z,12.11
2019-02-16T10:39:09.084Z,12.23
2019-02-16T10:41:49.880Z,13.11
2019-02-16T10:44:43.011Z,12.54
2019-02-16T10:47:41.560Z,12.77
2019-02-16T10:50:25.714Z,13.28
2019-02-16T10:53:16.580Z,12.93
2019-02-16T10:56:01.603Z,12.88
2019-02-16T10:58:42.794Z,12.95
2019-02-16T11:01:23.955Z,12.77
2019-02-16T11:04:11.127Z,12.64
2019-02-16T11:06:56.773Z,13.50
2019-02-16T11:09:54.168Z,13.93
2019-02-16T11:12:54.104Z,13.97
2019-02-16T11:15:47.799Z,13.70
2019-02-16T11:18:38.355Z,13.31
2019-02-16T11:21:26.846Z,13.67
2019-02-16T11:24:06.668Z,13.39
2019-02-16T11:27:06.441Z,13.70
2019-02-16T11:30:05.991Z,14.65
2019-02-16T11:32:54.211Z,14.60
2019-02-16T11:35:40.468Z,14.42
2019-02-16T11:38:31.236Z,14.65
2019-02-16T11:41:18.709Z,14.55
2019-02-16T11:43:54.364Z,14.44
2019-02-16T11:46:43.613Z,14.83
2019-02-16T11:49:28.243Z,14.46
2019-02-16T11:52:30.930Z,14.98
2019-02-16T11:55:21.651Z,14.82
2019-02-16T11:58:12.356Z,15.19
2019-02-16T12:00:55.639Z,15.09
2019-02-16T12:03:42.069Z,14.94
2019-02-16T12:06:38.567Z,14.68
2019-02-16T12:09:30.273Z,15.28
2019-02-16T12:12:29.566Z,14.88
2019-02-16T12:15:08.848Z,14.74
2019-02-16T12:17:59.628Z,15.12
2019-02-16T12:20:53.135Z,15.15
2019-02-16T12:23:36.916Z,14.83
2019-02-16T12:26:32.423Z,15.14
2019-02-16T12:29:32.362Z,15.58
2019-02-16T12:32:16.217Z,15.45
2019-02-16T12:35:01.667Z,15.39
2019-02-16T12:37:38.707Z,15.38
2019-02-16T12:40:23.241Z,15.10
2019-02-16T12:43:31.897Z,15.22
2019-02-16T12:46:28.522Z,15.63
2019-02-16T12:49:25.061Z,15.12
2019-02-16T12:52:14.857Z,14.67
2019-02-16T12:55:18.128Z,14.47
2019-02-16T12:58:11.657Z,14.32
2019-02-16T13:01:02.494Z,14.21
2019-02-16T13:03:57.357Z,14.13
2019-02-16T13:06:50.177Z,14.30
2019-02-16T13:09:55.587Z,14.30
2019-02-16T13:12:47.644Z,14.28
2019-02-16T13:15:25.683Z,14.22
2019-02-16T13:18:19.491Z,14.32
2019-02-16T13:21:16.255Z,14.19
2019-02-16T13:24:05.317Z,14.37
2019-02-16T13:27:00.567Z,14.22
2019-02-16T13:29:51.402Z,13.97
2019-02-16T13:32:40.608Z,14.16
2019-02-16T13:35:30.496Z,14.07
2019-02-16T13:38:24.348Z,14.04
2019-02-16T13:41:21.416Z,14.17
2019-02-16T13:44:15.687Z,14.18
2019-02-16T13:47:03.315Z,14.01
2019-02-16T13:49:59.678Z,14.06
2019-02-16T13:52:57.217Z,14.22
2019-02-16T13:55:47.265Z,14.02
2019-02-16T13:58:46.878Z,14.18
2019-02-16T14:01:33.814Z,14.07
2019-02-16T14:04:29.302Z,14.09
2019-02-16T14:07:20.095Z,14.19
2019-02-16T14:10:20.763Z,14.01
2019-02-16T14:13:02.249Z,14.13
2019-02-16T14:15:47.168Z,14.22
2019-02-16T14:18:19.084Z,13.96
2019-02-16T14:20:51.591Z,13.86
2019-02-16T14:23:23.966Z,14.17
2019-02-16T14:25:56.074Z,14.00
2019-02-16T14:28:28.063Z,13.95
2019-02-16T14:31:00.304Z,13.87
2019-02-16T14:33:32.286Z,13.94
2019-02-16T14:36:04.699Z,13.86
2019-02-16T14:38:48.270Z,13.70
2019-02-16T14:41:20.367Z,13.87
2019-02-16T14:43:52.273Z,13.97
2019-02-16T14:46:24.270Z,13.76
2019-02-16T14:48:56.110Z,13.73
2019-02-16T14:51:28.060Z,13.71
2019-02-16T14:54:00.178Z,13.57
2019-02-16T14:56:32.000Z,13.49
2019-02-16T14:59:03.978Z,13.37
2019-02-16T15:01:35.951Z,13.31
2019-02-16T15:04:08.942Z,13.22
2019-02-16T15:06:43.416Z,13.25
2019-02-16T15:09:15.277Z,13.41
2019-02-16T15:11:47.288Z,13.45
2019-02-16T15:14:19.454Z,13.36
2019-02-16T15:16:52.631Z,13.43
2019-02-16T15:19:25.752Z,13.16
2019-02-16T15:21:57.761Z,13.13
2019-02-16T15:24:29.613Z,13.18
2019-02-16T15:27:01.537Z,12.93
2019-02-16T15:29:33.437Z,13.06
2019-02-16T15:32:05.414Z,13.16
2019-02-16T15:34:40.489Z,13.03
2019-02-16T15:37:12.464Z,12.93
2019-02-16T15:39:44.341Z,12.90
2019-02-16T15:42:16.257Z,12.78
2019-02-16T15:44:48.177Z,12.79
2019-02-16T15:47:20.159Z,12.70
2019-02-16T15:49:52.068Z,12.74
2019-02-16T15:52:23.957Z,12.74
2019-02-16T15:54:55.847Z,12.61
2019-02-16T15:57:31.258Z,12.42
2019-02-16T16:00:03.536Z,12.37
2019-02-16T16:02:35.813Z,12.24
2019-02-16T16:05:07.753Z,12.11
2019-02-16T16:07:41.437Z,11.86
2019-02-16T16:10:35.281Z,11.93
2019-02-16T16:13:37.063Z,12.05
2019-02-16T16:16:27.869Z,11.99
2019-02-16T16:19:22.578Z,11.98
2019-02-16T16:22:04.281Z,11.92
2019-02-16T16:24:57.945Z,11.64
2019-02-16T16:27:36.859Z,11.24
2019-02-16T16:30:28.052Z,11.35
2019-02-16T16:33:07.659Z,11.12
2019-02-16T16:35:49.004Z,10.85
2019-02-16T16:38:54.992Z,10.87
2019-02-16T16:41:57.617Z,10.81
2019-02-16T16:44:37.197Z,10.63
2019-02-16T16:47:34.669Z,10.49
2019-02-16T16:50:22.836Z,10.35
2019-02-16T16:53:23.725Z,10.47
2019-02-16T16:56:28.474Z,10.54
2019-02-16T16:59:35.855Z,10.48
2019-02-16T17:02:25.080Z,10.16
2019-02-16T17:05:15.257Z,9.93
2019-02-16T17:08:08.769Z,9.76
2019-02-16T17:10:57.823Z,9.60
2019-02-16T17:13:49.179Z,9.46
2019-02-16T17:16:31.892Z,9.49
2019-02-16T17:19:22.563Z,9.35
2019-02-16T17:22:16.004Z,9.22
2019-02-16T17:24:59.840Z,9.14
2019-02-16T17:27:44.992Z,9.05
2019-02-16T17:30:50.954Z,8.98
2019-02-16T17:33:41.686Z,8.86
2019-02-16T17:36:32.571Z,8.96
2019-02-16T17:39:21.729Z,8.80
2019-02-16T17:42:14.112Z,8.99
2019-02-16T17:45:07.772Z,8.89
2019-02-16T17:48:01.360Z,8.74
2019-02-16T17:50:38.614Z,8.60
2019-02-16T17:53:26.449Z,8.51
2019-02-16T17:56:11.589Z,8.49
2019-02-16T17:59:02.296Z,8.41
2019-02-16T18:01:58.848Z,8.28
2019-02-16T18:04:52.515Z,8.16
2019-02-16T18:07:31.081Z,8.13
2019-02-16T18:10:14.818Z,8.08
2019-02-16T18:13:17.714Z,8.05
2019-02-16T18:15:55.419Z,8.06
2019-02-16T18:18:47.808Z,8.02
2019-02-16T18:21:42.459Z,8.05
2019-02-16T18:24:36.206Z,8.01
2019-02-16T18:27:30.036Z,8.05
2019-02-16T18:30:23.642Z,7.97
2019-02-16T18:33:07.776Z,7.96
2019-02-16T18:35:58.503Z,7.92
2019-02-16T18:38:58.195Z,7.96
2019-02-16T18:41:39.782Z,7.93
2019-02-16T18:44:38.164Z,8.06
2019-02-16T18:47:21.921Z,7.83
2019-02-16T18:50:12.684Z,7.73
2019-02-16T18:53:06.306Z,7.66
2019-02-16T18:55:52.550Z,7.57
2019-02-16T18:58:31.759Z,7.40
2019-02-16T19:01:14.357Z,7.38
2019-02-16T19:04:05.142Z,7.30
2019-02-16T19:07:14.015Z,7.33
2019-02-16T19:09:56.254Z,7.46
2019-02-16T19:12:46.225Z,7.33
2019-02-16T19:15:49.035Z,7.19
2019-02-16T19:18:38.902Z,7.13
2019-02-16T19:21:31.232Z,7.03
2019-02-16T19:24:37.480Z,7.00
2019-02-16T19:27:32.372Z,7.04
2019-02-16T19:30:12.152Z,6.99
2019-02-16T19:32:51.049Z,6.83
2019-02-16T19:35:53.318Z,6.72
2019-02-16T19:38:53.435Z,6.66
2019-02-16T19:41:50.935Z,6.58
2019-02-16T19:44:42.992Z,6.45
2019-02-16T19:47:38.002Z,6.35
2019-02-16T19:50:41.015Z,6.29
2019-02-16T19:53:33.381Z,6.26
2019-02-16T19:56:21.459Z,6.18
2019-02-16T19:59:16.734Z,6.17
2019-02-16T20:02:16.698Z,6.11
2019-02-16T20:05:11.375Z,6.04
2019-02-16T20:07:56.914Z,6.08
2019-02-16T20:10:55.552Z,6.02
2019-02-16T20:13:54.065Z,5.92
2019-02-16T20:16:57.322Z,5.91
2019-02-16T20:19:49.475Z,5.85
2019-02-16T20:22:48.082Z,5.76
2019-02-16T20:25:49.984Z,5.84
2019-02-16T20:28:52.042Z,5.76
2019-02-16T20:32:46.849Z,5.86
2019-02-16T20:35:42.583Z,6.00
2019-02-16T20:38:31.333Z,6.16
2019-02-16T20:41:45.925Z,6.20
2019-02-16T20:44:21.472Z,5.99
2019-02-16T20:47:51.895Z,5.84
2019-02-16T20:50:44.177Z,5.92
2019-02-16T20:53:43.747Z,5.80
2019-02-16T20:56:25.090Z,5.78
2019-02-16T20:59:54.401Z,5.81
2019-02-16T21:03:09.051Z,5.63
2019-02-16T21:06:19.734Z,5.63
2019-02-16T21:09:26.026Z,5.79
2019-02-16T21:12:18.910Z,5.54
2019-02-16T21:15:33.667Z,5.58
2019-02-16T21:18:25.658Z,5.59
2019-02-16T21:21:38.825Z,5.62
2019-02-16T21:24:32.146Z,5.41
2019-02-16T21:27:18.713Z,5.28
2019-02-16T21:30:03.190Z,5.39
2019-02-16T21:33:02.443Z,5.45
2019-02-16T21:35:54.047Z,5.54
2019-02-16T21:38:51.665Z,5.48
2019-02-16T21:41:42.968Z,5.31
2019-02-16T21:44:38.329Z,5.28
2019-02-16T21:47:33.853Z,5.24
2019-02-16T21:50:33.762Z,5.12
2019-02-16T21:53:37.717Z,5.04
2019-02-16T21:56:25.725Z,5.05
2019-02-16T21:59:25.747Z,5.08
2019-02-16T22:02:12.478Z,5.09
2019-02-16T22:05:17.562Z,4.99
2019-02-16T22:08:19.168Z,4.98
2019-02-16T22:11:19.255Z,5.14
2019-02-16T22:13:55.190Z,5.20
2019-02-16T22:16:54.866Z,5.21
2019-02-16T22:19:36.154Z,5.14
2019-02-16T22:22:25.961Z,5.09
2019-02-16T22:27:59.916Z,5.20
2019-02-16T22:30:36.089Z,5.07
2019-02-16T22:33:13.512Z,4.98
2019-02-16T22:35:51.700Z,5.04
2019-02-16T22:38:31.241Z,5.04
2019-02-16T22:41:08.832Z,5.09
2019-02-16T22:43:50.821Z,5.05
2019-02-16T22:46:27.334Z,4.92
2019-02-16T22:49:07.204Z,4.89
2019-02-16T22:51:38.920Z,4.79
2019-02-16T22:54:18.688Z,4.77
2019-02-16T22:56:54.262Z,4.68
2019-02-16T22:59:31.585Z,4.62
2019-02-16T23:02:14.469Z,4.55
2019-02-16T23:04:47.579Z,4.50
2019-02-16T23:07:23.993Z,4.52
2019-02-16T23:10:01.987Z,4.55
2019-02-16T23:12:44.478Z,4.58
2019-02-16T23:15:20.870Z,4.54
2019-02-16T23:18:09.505Z,4.65
2019-02-16T23:20:43.503Z,4.68
2019-02-16T23:23:15.520Z,4.62
2019-02-16T23:25:47.271Z,4.55
2019-02-16T23:28:53.316Z,4.49
2019-02-16T23:31:26.409Z,4.52
2019-02-16T23:34:04.028Z,4.69
2019-02-16T23:36:51.775Z,4.79
2019-02-16T23:39:26.648Z,4.81
2019-02-16T23:42:09.237Z,4.70
2019-02-16T23:44:45.698Z,4.61
2019-02-16T23:47:32.624Z,4.54
2019-02-16T23:50:11.525Z,4.50
2019-02-16T23:52:50.689Z,4.41
2019-02-16T23:55:26.262Z,4.37
2019-02-16T23:58:02.407Z,4.28
